Time;durP1;ratioP1;P1;durP2;ratioP2;P2;SDS_P1;SDS_P2;PMS_P1;PMS_P2;Temp;Humidity;BMP_temperature;BMP_pressure;BME280_temperature;BME280_humidity;BME280_pressure;Samples;Min_cycle;Max_cycle;Signal;HPM_P1;HPM_P2
2023/12/20 00:01:44;;;;;;;5.82;1.15;;;15.80;87.80;;;;;;4172611;28;20187;-50
2023/12/20 00:04:25;;;;;;;4.45;1.30;;;15.80;87.80;;;;;;4173685;28;20064;-50
2023/12/20 00:07:06;;;;;;;9.30;1.75;;;15.80;87.80;;;;;;4189904;28;20068;-52
2023/12/20 00:09:47;;;;;;;9.32;2.15;;;15.80;87.90;;;;;;4189232;28;20052;-49
2023/12/20 00:12:28;;;;;;;8.02;1.67;;;15.90;87.80;;;;;;4189771;28;20059;-49
2023/12/20 00:15:09;;;;;;;7.22;1.58;;;15.90;87.70;;;;;;4183288;28;20817;-48
2023/12/20 00:17:52;;;;;;;8.68;2.25;;;16.00;87.50;;;;;;4184634;28;20109;-48
2023/12/20 00:20:33;;;;;;;5.70;1.40;;;16.00;87.40;;;;;;4187685;28;20125;-50
2023/12/20 00:23:14;;;;;;;7.60;1.63;;;16.00;87.10;;;;;;4188161;28;20048;-49
2023/12/20 00:25:54;;;;;;;6.45;1.38;;;16.00;87.10;;;;;;4189506;28;20063;-50
2023/12/20 00:28:36;;;;;;;5.38;1.75;;;16.00;87.10;;;;;;4189091;28;20407;-51
2023/12/20 00:31:17;;;;;;;8.68;1.55;;;16.00;87.30;;;;;;4189237;28;20056;-50
2023/12/20 00:33:59;;;;;;;4.80;1.33;;;16.00;87.50;;;;;;4189029;28;20046;-48
2023/12/20 00:36:40;;;;;;;3.85;1.30;;;16.00;87.40;;;;;;4172852;28;20055;-48
2023/12/20 00:39:21;;;;;;;11.32;1.65;;;16.00;87.00;;;;;;4156231;28;20087;-51
2023/12/20 00:42:02;;;;;;;7.03;1.70;;;16.10;87.70;;;;;;4171282;28;20176;-50
2023/12/20 00:44:43;;;;;;;5.65;1.65;;;16.10;86.70;;;;;;4172764;28;20087;-51
2023/12/20 00:47:24;;;;;;;7.60;1.70;;;16.10;86.90;;;;;;4157891;28;20068;-48
2023/12/20 00:50:08;;;;;;;7.68;1.60;;;16.10;86.90;;;;;;4172417;28;20446;-49
2023/12/20 00:52:48;;;;;;;8.52;1.40;;;16.20;86.50;;;;;;4182535;28;20059;-52
2023/12/20 00:55:29;;;;;;;4.93;1.50;;;16.20;86.40;;;;;;4188559;28;20056;-48
2023/12/20 00:58:10;;;;;;;5.53;1.30;;;16.20;86.10;;;;;;4188222;28;20063;-49
2023/12/20 01:00:51;;;;;;;7.60;1.40;;;16.30;86.00;;;;;;4172826;28;20052;-51
2023/12/20 01:03:32;;;;;;;4.90;1.42;;;16.20;85.80;;;;;;4188651;28;20059;-50
2023/12/20 01:06:15;;;;;;;6.38;1.27;;;16.20;86.00;;;;;;4172403;28;20063;-51
2023/12/20 01:08:57;;;;;;;7.15;2.25;;;16.20;85.80;;;;;;4172071;28;20064;-48
2023/12/20 01:11:37;;;;;;;12.33;2.17;;;16.30;86.00;;;;;;4172009;28;20052;-51
2023/12/20 01:14:18;;;;;;;10.05;1.90;;;16.20;85.90;;;;;;4171924;28;20055;-51
2023/12/20 01:17:00;;;;;;;11.60;1.60;;;16.20;86.00;;;;;;4184598;28;20055;-50
2023/12/20 01:19:40;;;;;;;11.93;1.80;;;16.20;85.70;;;;;;4188834;28;20651;-50
2023/12/20 01:22:23;;;;;;;7.47;1.95;;;16.30;85.90;;;;;;4171878;28;20052;-49
2023/12/20 01:25:04;;;;;;;11.98;1.67;;;16.20;86.00;;;;;;4156978;28;20732;-49
2023/12/20 01:27:45;;;;;;;;;;;16.20;86.20;;;;;;4157066;28;20057;-53
2023/12/20 01:30:26;;;;;;;5.78;1.45;;;16.20;86.50;;;;;;4185360;28;19927;-51
2023/12/20 01:33:07;;;;;;;9.27;2.25;;;16.20;86.50;;;;;;4187810;28;20131;-50
2023/12/20 01:35:48;;;;;;;7.57;1.60;;;16.10;86.40;;;;;;4188614;28;20695;-50
2023/12/20 01:38:30;;;;;;;8.07;1.92;;;16.10;86.40;;;;;;4179056;28;20182;-53
2023/12/20 01:41:12;;;;;;;8.68;1.33;;;16.10;87.20;;;;;;4171478;28;20158;-53
2023/12/20 01:43:53;;;;;;;7.55;1.23;;;16.10;86.30;;;;;;4187706;28;20572;-50
2023/12/20 01:46:34;;;;;;;14.82;2.10;;;16.10;87.40;;;;;;4173144;28;20079;-49
2023/12/20 01:49:15;;;;;;;10.05;1.98;;;16.00;86.40;;;;;;4177262;28;20519;-52
2023/12/20 01:51:57;;;;;;;12.85;1.90;;;16.00;86.70;;;;;;4171297;28;20075;-52
2023/12/20 01:54:41;;;;;;;4.82;1.63;;;15.90;87.10;;;;;;4166909;28;20084;-51
2023/12/20 01:57:22;;;;;;;8.60;1.50;;;16.00;87.30;;;;;;4159387;28;20180;-53
2023/12/20 02:00:04;;;;;;;6.03;1.77;;;16.10;87.00;;;;;;4155173;28;20064;-49
2023/12/20 02:02:46;;;;;;;10.77;2.70;;;16.20;86.70;;;;;;4164502;28;20052;-52
2023/12/20 02:05:27;;;;;;;9.57;1.70;;;16.30;86.30;;;;;;4171239;28;20068;-51
2023/12/20 02:08:08;;;;;;;;;;;16.40;86.70;;;;;;4154843;28;20056;-49
2023/12/20 02:10:51;;;;;;;10.35;1.90;;;16.50;85.50;;;;;;4156011;28;20441;-54
2023/12/20 02:13:32;;;;;;;7.18;2.08;;;16.50;85.30;;;;;;4171468;28;20056;-51
2023/12/20 02:16:13;;;;;;;9.98;2.13;;;16.40;85.00;;;;;;4173098;28;20442;-52
2023/12/20 02:18:55;;;;;;;7.15;1.55;;;16.40;85.10;;;;;;4187315;28;20047;-52
2023/12/20 02:21:37;;;;;;;;;;;16.40;85.70;;;;;;4188086;28;20060;-50
2023/12/20 02:24:18;;;;;;;5.63;1.98;;;16.50;84.70;;;;;;4171483;28;19943;-53
2023/12/20 02:26:59;;;;;;;8.07;1.88;;;16.60;84.40;;;;;;4177998;28;20052;-53
2023/12/20 02:29:40;;;;;;;8.05;1.40;;;16.60;83.80;;;;;;4171032;28;20138;-50
2023/12/20 02:32:22;;;;;;;6.20;2.17;;;16.60;83.80;;;;;;4169397;28;20087;-50
2023/12/20 02:35:03;;;;;;;4.90;1.38;;;16.60;84.10;;;;;;4170885;28;20408;-48
2023/12/20 02:37:45;;;;;;;10.20;1.65;;;16.60;83.90;;;;;;4154088;28;20056;-50
2023/12/20 02:40:26;;;;;;;3.97;1.60;;;16.60;84.00;;;;;;4157897;28;20123;-48
2023/12/20 02:43:07;;;;;;;7.07;2.03;;;16.70;83.80;;;;;;4157641;28;20059;-48
2023/12/20 02:45:48;;;;;;;9.18;2.05;;;16.70;83.90;;;;;;4186985;28;20527;-52
2023/12/20 02:48:29;;;;;;;7.78;2.00;;;16.70;84.80;;;;;;4155807;28;20056;-52
2023/12/20 02:51:10;;;;;;;7.28;3.17;;;16.70;83.70;;;;;;4163383;28;20059;-48
2023/12/20 02:53:53;;;;;;;15.73;2.35;;;16.80;83.60;;;;;;4170526;28;20071;-49
2023/12/20 02:56:33;;;;;;;8.52;2.13;;;16.80;83.20;;;;;;4169570;28;20044;-52
2023/12/20 02:59:14;;;;;;;10.97;2.40;;;16.80;83.30;;;;;;4186886;28;20090;-54
2023/12/20 03:01:55;;;;;;;11.25;2.58;;;16.80;83.10;;;;;;4170713;28;20291;-51
2023/12/20 03:04:36;;;;;;;10.25;2.10;;;16.70;84.10;;;;;;4187037;28;20047;-49
2023/12/20 03:07:17;;;;;;;9.13;2.17;;;16.70;83.30;;;;;;4187014;28;20054;-48
2023/12/20 03:09:59;;;;;;;9.70;2.60;;;16.60;83.10;;;;;;4170297;28;20059;-50
2023/12/20 03:12:50;;;;;;;14.82;3.38;;;16.50;83.00;;;;;;4176699;28;20181;-50
2023/12/20 03:15:31;;;;;;;15.45;3.45;;;16.50;83.40;;;;;;4169901;28;20055;-48
2023/12/20 03:18:12;;;;;;;11.55;3.25;;;16.30;83.70;;;;;;4166298;28;20056;-51
2023/12/20 03:20:53;;;;;;;15.15;2.33;;;16.40;84.40;;;;;;4171689;28;20455;-53
2023/12/20 03:23:35;;;;;;;14.30;2.25;;;16.30;84.40;;;;;;4173141;28;20059;-50
2023/12/20 03:26:17;;;;;;;7.90;1.95;;;16.40;84.30;;;;;;4180203;28;20055;-51
2023/12/20 03:28:58;;;;;;;10.25;2.42;;;16.50;84.30;;;;;;4189664;28;20044;-49
2023/12/20 03:31:39;;;;;;;14.38;2.55;;;16.60;84.00;;;;;;4187976;28;20083;-50
2023/12/20 03:34:20;;;;;;;11.13;2.83;;;16.70;83.70;;;;;;4183224;28;20048;-48
2023/12/20 03:37:01;;;;;;;14.77;3.70;;;16.70;83.30;;;;;;4190310;28;20060;-48
2023/12/20 03:39:42;;;;;;;12.15;2.72;;;16.70;83.10;;;;;;4189756;28;20063;-49
2023/12/20 03:42:25;;;;;;;11.70;3.15;;;16.70;83.10;;;;;;4173398;28;20055;-48
2023/12/20 03:45:06;;;;;;;7.65;1.65;;;16.70;84.20;;;;;;4173113;28;20064;-51
2023/12/20 03:47:48;;;;;;;4.72;1.88;;;16.70;82.80;;;;;;4173558;28;20055;-52
2023/12/20 03:50:30;;;;;;;9.40;2.35;;;16.80;82.20;;;;;;4182377;28;20071;-50
2023/12/20 03:53:11;;;;;;;7.53;2.25;;;16.70;82.10;;;;;;4190250;28;20056;-50
2023/12/20 03:55:52;;;;;;;13.82;2.20;;;16.70;82.20;;;;;;4190243;28;20055;-49
2023/12/20 03:58:34;;;;;;;10.20;3.28;;;16.70;82.50;;;;;;4189703;28;20055;-52
2023/12/20 04:01:15;;;;;;;7.00;2.20;;;16.70;82.80;;;;;;4189454;28;20059;-51
2023/12/20 04:03:56;;;;;;;14.07;2.25;;;16.70;82.90;;;;;;4189554;28;20055;-48
2023/12/20 04:06:37;;;;;;;9.45;2.72;;;16.70;83.60;;;;;;4181696;28;20499;-49
2023/12/20 04:09:18;;;;;;;17.70;4.00;;;16.60;82.90;;;;;;4187492;28;20424;-49
2023/12/20 04:11:59;;;;;;;15.80;2.35;;;16.60;81.90;;;;;;4185910;28;20113;-50
2023/12/20 04:14:42;;;;;;;18.05;3.10;;;16.50;81.80;;;;;;4189977;28;20220;-53
2023/12/20 04:17:23;;;;;;;14.15;3.30;;;16.50;83.40;;;;;;4189667;28;20122;-49
2023/12/20 04:20:05;;;;;;;;;;;16.40;83.20;;;;;;4190239;28;20044;-48
2023/12/20 04:22:45;;;;;;;15.77;2.80;;;16.40;83.70;;;;;;4171914;28;19981;-49
2023/12/20 04:25:27;;;;;;;16.40;3.05;;;16.30;84.10;;;;;;4176950;28;20056;-49
2023/12/20 04:28:07;;;;;;;11.52;2.88;;;16.40;84.30;;;;;;4173268;28;20186;-48
2023/12/20 04:30:50;;;;;;;14.27;2.72;;;16.40;83.90;;;;;;4172722;28;20060;-52
2023/12/20 04:33:31;;;;;;;13.40;3.33;;;16.50;83.60;;;;;;4171432;28;20191;-50
2023/12/20 04:36:13;;;;;;;15.00;2.88;;;16.60;83.40;;;;;;4170884;28;20074;-53
2023/12/20 04:38:54;;;;;;;12.23;3.38;;;16.60;82.90;;;;;;4188200;28;20068;-51
2023/12/20 04:41:35;;;;;;;11.55;2.90;;;16.70;82.80;;;;;;4188790;28;20043;-53
2023/12/20 04:44:16;;;;;;;15.13;3.40;;;16.70;82.80;;;;;;4172669;28;20110;-47
2023/12/20 04:46:58;;;;;;;22.77;3.88;;;16.60;82.60;;;;;;4172069;28;20495;-50
2023/12/20 04:49:39;;;;;;;13.95;3.72;;;16.60;82.80;;;;;;4175136;28;20162;-49
2023/12/20 04:52:20;;;;;;;15.00;4.68;;;16.50;82.90;;;;;;4187624;28;20059;-49
2023/12/20 04:55:02;;;;;;;15.52;3.38;;;16.40;83.50;;;;;;4172545;28;20051;-48
2023/12/20 04:57:43;;;;;;;13.45;2.70;;;16.40;83.80;;;;;;4188732;28;20051;-53
2023/12/20 05:00:24;;;;;;;14.55;2.55;;;16.40;84.00;;;;;;4188286;28;20055;-51
2023/12/20 05:03:06;;;;;;;17.60;3.75;;;16.40;83.80;;;;;;4187014;28;20051;-58
2023/12/20 05:05:48;;;;;;;12.70;3.13;;;16.40;83.70;;;;;;4172511;28;20056;-57
2023/12/20 05:08:29;;;;;;;;;;;16.40;83.70;;;;;;4156362;28;20103;-57
2023/12/20 05:11:10;;;;;;;11.43;2.80;;;16.40;83.90;;;;;;4155843;28;19939;-55
2023/12/20 05:13:51;;;;;;;12.82;3.08;;;16.40;83.70;;;;;;4172538;28;20714;-55
2023/12/20 05:16:32;;;;;;;10.27;3.20;;;16.40;83.60;;;;;;4165262;28;20179;-58
2023/12/20 05:19:14;;;;;;;12.02;3.78;;;16.50;83.40;;;;;;4155998;28;20052;-57
2023/12/20 05:21:55;;;;;;;12.35;2.90;;;16.40;83.20;;;;;;4172237;28;20063;-57
2023/12/20 05:24:36;;;;;;;13.05;3.22;;;16.50;83.50;;;;;;4182790;28;20122;-56
2023/12/20 05:27:17;;;;;;;14.40;3.15;;;16.50;83.80;;;;;;4176319;28;20078;-58
2023/12/20 05:29:58;;;;;;;10.73;3.05;;;16.60;83.40;;;;;;4186189;28;20218;-58
2023/12/20 05:32:39;;;;;;;18.02;2.72;;;16.70;83.00;;;;;;4188123;28;20129;-59
2023/12/20 05:35:23;;;;;;;12.93;3.40;;;16.70;82.70;;;;;;4187993;28;20056;-58
2023/12/20 05:38:04;;;;;;;17.90;3.25;;;16.80;82.50;;;;;;4188084;28;20055;-58
2023/12/20 05:40:45;;;;;;;;;;;16.80;82.30;;;;;;4188191;28;20059;-58
2023/12/20 05:43:26;;;;;;;16.48;4.13;;;16.80;82.10;;;;;;4158212;28;20021;-57
2023/12/20 05:46:07;;;;;;;15.38;3.45;;;16.80;82.20;;;;;;4170132;28;20065;-57
2023/12/20 05:48:48;;;;;;;10.35;2.97;;;16.80;82.50;;;;;;4176658;28;20412;-56
2023/12/20 05:51:31;;;;;;;14.18;3.25;;;16.70;82.50;;;;;;4171571;28;20064;-57
2023/12/20 05:54:12;;;;;;;14.52;2.97;;;16.80;82.60;;;;;;4170833;28;20055;-57
2023/12/20 05:56:53;;;;;;;13.70;3.28;;;16.80;82.30;;;;;;4183911;28;20050;-56
2023/12/20 05:59:34;;;;;;;13.70;2.63;;;16.80;82.10;;;;;;4185954;28;20063;-58
2023/12/20 06:02:14;;;;;;;15.30;3.43;;;16.70;82.30;;;;;;4171683;28;20655;-58
2023/12/20 06:04:55;;;;;;;14.45;2.83;;;16.70;82.20;;;;;;4171200;28;20063;-58
2023/12/20 06:07:38;;;;;;;16.25;3.75;;;16.70;82.40;;;;;;4169142;28;20567;-58
2023/12/20 06:10:19;;;;;;;17.40;3.47;;;16.60;82.50;;;;;;4170973;28;20060;-58
2023/12/20 06:13:00;;;;;;;15.18;3.53;;;16.60;82.80;;;;;;4186863;28;20063;-58
2023/12/20 06:15:41;;;;;;;16.40;2.83;;;16.60;83.20;;;;;;4187057;28;20121;-57
2023/12/20 06:18:22;;;;;;;11.00;2.65;;;16.60;83.30;;;;;;4186752;28;20051;-57
2023/12/20 06:21:04;;;;;;;16.70;3.00;;;16.60;83.00;;;;;;4186265;28;20075;-57
2023/12/20 06:23:46;;;;;;;14.32;3.00;;;16.70;82.80;;;;;;4186766;28;20059;-58
2023/12/20 06:26:27;;;;;;;13.68;3.33;;;16.80;82.50;;;;;;4180308;28;20052;-57
2023/12/20 06:29:08;;;;;;;22.90;4.25;;;16.80;82.30;;;;;;4186667;28;20427;-57
2023/12/20 06:31:49;;;;;;;21.10;3.67;;;16.70;82.20;;;;;;4181027;28;20400;-58
2023/12/20 06:34:30;;;;;;;16.70;3.67;;;16.70;82.20;;;;;;4186626;28;20055;-58
2023/12/20 06:37:11;;;;;;;14.90;3.47;;;16.70;82.50;;;;;;4181649;28;20055;-58
2023/12/20 06:39:54;;;;;;;17.08;3.78;;;16.70;82.70;;;;;;4186630;28;20055;-54
2023/12/20 06:42:34;;;;;;;12.65;2.83;;;16.70;82.60;;;;;;4174125;28;20056;-57
2023/12/20 06:45:19;;;;;;;12.60;3.38;;;16.70;83.10;;;;;;4186692;28;20055;-56
2023/12/20 06:48:01;;;;;;;16.17;2.95;;;16.60;83.10;;;;;;4183716;28;20063;-55
2023/12/20 06:50:42;;;;;;;16.33;3.15;;;16.70;83.20;;;;;;4184234;28;20044;-56
2023/12/20 06:53:23;;;;;;;20.65;3.83;;;16.70;82.90;;;;;;4186341;28;20517;-56
2023/12/20 06:56:07;;;;;;;13.18;3.78;;;16.60;82.90;;;;;;4186672;28;20063;-56
2023/12/20 06:58:48;;;;;;;11.45;3.70;;;16.70;83.10;;;;;;4166428;28;20048;-57
2023/12/20 07:01:29;;;;;;;16.85;3.63;;;16.60;82.90;;;;;;4182765;28;20093;-57
2023/12/20 07:04:10;;;;;;;16.50;3.22;;;16.70;82.90;;;;;;4165656;28;20203;-55
2023/12/20 07:06:53;;;;;;;12.73;3.17;;;16.70;82.80;;;;;;4169646;28;20051;-55
2023/12/20 07:09:35;;;;;;;20.38;4.28;;;16.70;82.60;;;;;;4166109;28;20151;-55
2023/12/20 07:12:19;;;;;;;13.90;3.00;;;16.70;82.50;;;;;;4170672;28;20052;-56
2023/12/20 07:15:00;;;;;;;13.35;3.13;;;16.70;82.40;;;;;;4171164;28;20047;-56
2023/12/20 07:17:41;;;;;;;16.88;3.60;;;16.60;82.40;;;;;;4186781;28;20040;-57
2023/12/20 07:20:22;;;;;;;13.90;3.63;;;16.60;82.80;;;;;;4185258;28;20265;-55
2023/12/20 07:23:03;;;;;;;14.48;4.55;;;16.60;82.90;;;;;;4185922;28;20190;-52
2023/12/20 07:25:44;;;;;;;;;;;16.70;82.80;;;;;;4187580;28;20056;-48
2023/12/20 07:28:26;;;;;;;9.63;2.35;;;16.80;82.20;;;;;;4186225;28;19931;-50
2023/12/20 07:31:07;;;;;;;12.05;2.65;;;16.90;81.60;;;;;;4184198;28;20052;-52
2023/12/20 07:33:48;;;;;;;13.88;3.28;;;17.00;83.10;;;;;;4154840;28;20057;-50
2023/12/20 07:36:29;;;;;;;18.27;3.35;;;17.00;81.40;;;;;;4155186;28;20072;-52
2023/12/20 07:39:10;;;;;;;22.55;3.00;;;17.00;80.90;;;;;;4170285;28;20052;-50
2023/12/20 07:41:51;;;;;;;12.63;3.25;;;17.00;80.20;;;;;;4162708;28;20048;-50
2023/12/20 07:44:35;;;;;;;13.57;2.85;;;17.00;78.10;;;;;;4168486;28;20506;-50
2023/12/20 07:47:21;;;;;;;11.20;3.95;;;17.00;77.60;;;;;;4178403;28;20056;-51
2023/12/20 07:50:02;;;;;;;17.98;2.83;;;17.00;77.50;;;;;;4177155;28;20133;-51
2023/12/20 07:52:43;;;;;;;14.52;4.05;;;16.90;76.80;;;;;;4161352;28;20052;-55
2023/12/20 07:55:24;;;;;;;15.38;3.28;;;16.80;76.30;;;;;;4169711;28;20047;-55
2023/12/20 07:58:06;;;;;;;16.63;3.10;;;16.80;75.60;;;;;;4169665;28;20056;-51
2023/12/20 08:00:48;;;;;;;;;;;16.80;75.30;;;;;;4180493;28;20084;-54
2023/12/20 08:03:29;;;;;;;19.38;4.28;;;16.80;75.20;;;;;;4185250;28;19931;-53
2023/12/20 08:06:10;;;;;;;9.98;2.92;;;16.80;74.80;;;;;;4182446;28;20462;-53
2023/12/20 08:08:53;;;;;;;17.50;3.53;;;16.80;75.20;;;;;;4189530;28;20680;-52
2023/12/20 08:11:38;;;;;;;12.02;2.78;;;16.70;74.40;;;;;;4175289;28;20056;-53
2023/12/20 08:14:19;;;;;;;8.32;2.17;;;16.70;74.30;;;;;;4156092;28;20045;-54
2023/12/20 08:17:01;;;;;;;16.92;3.50;;;16.70;74.00;;;;;;4171257;28;20055;-55
2023/12/20 08:19:42;;;;;;;19.73;4.55;;;16.70;73.70;;;;;;4187280;28;20063;-54
2023/12/20 08:22:23;;;;;;;14.15;2.88;;;16.70;73.30;;;;;;4184257;28;20206;-55
2023/12/20 08:25:05;;;;;;;18.15;3.20;;;16.70;73.10;;;;;;4187178;28;20375;-55
2023/12/20 08:27:46;;;;;;;13.95;3.15;;;16.70;73.00;;;;;;4170171;28;20392;-52
2023/12/20 08:30:27;;;;;;;15.32;2.35;;;16.60;72.70;;;;;;4176021;28;20850;-56
2023/12/20 08:33:12;;;;;;;9.30;2.83;;;16.60;73.00;;;;;;4182772;28;20121;-54
2023/12/20 08:35:53;;;;;;;11.40;2.35;;;16.50;73.00;;;;;;4189064;28;20086;-50
2023/12/20 08:38:34;;;;;;;16.92;3.08;;;16.50;73.50;;;;;;4159104;28;20110;-50
2023/12/20 08:41:17;;;;;;;13.40;3.03;;;16.50;74.40;;;;;;4185502;28;20523;-53
2023/12/20 08:43:57;;;;;;;3.63;1.30;;;16.40;73.60;;;;;;4170328;28;20526;-55
2023/12/20 08:46:38;;;;;;;4.40;1.13;;;16.40;72.90;;;;;;4164630;28;20044;-54
2023/12/20 08:49:21;;;;;;;1.80;0.85;;;16.40;73.30;;;;;;4164359;28;20488;-51
2023/12/20 08:52:02;;;;;;;3.00;0.95;;;16.40;73.10;;;;;;4179517;28;20056;-49
2023/12/20 08:54:43;;;;;;;2.08;0.77;;;16.30;73.20;;;;;;4172469;28;20048;-52
2023/12/20 08:57:25;;;;;;;5.97;0.77;;;16.30;73.00;;;;;;4188758;28;20076;-54
2023/12/20 09:00:08;;;;;;;2.63;0.93;;;16.30;72.90;;;;;;4186691;28;20060;-56
2023/12/20 09:02:49;;;;;;;4.18;1.25;;;16.30;72.60;;;;;;4179712;28;20060;-57
2023/12/20 09:05:32;;;;;;;5.57;1.85;;;16.20;72.40;;;;;;4172820;28;20060;-59
2023/12/20 09:08:13;;;;;;;7.18;1.10;;;16.20;73.20;;;;;;4177712;28;20121;-59
2023/12/20 09:10:54;;;;;;;2.58;0.82;;;16.20;73.70;;;;;;4181997;28;20047;-58
2023/12/20 09:13:35;;;;;;;7.22;1.08;;;16.20;74.20;;;;;;4155879;28;20507;-58
2023/12/20 09:16:17;;;;;;;6.05;1.10;;;16.20;74.30;;;;;;4176745;28;20051;-57
2023/12/20 09:18:58;;;;;;;4.38;0.95;;;16.20;74.80;;;;;;4187372;28;20133;-58
2023/12/20 09:21:41;;;;;;;2.55;0.85;;;16.20;74.80;;;;;;4170200;28;20077;-54
2023/12/20 09:24:22;;;;;;;4.00;1.23;;;16.20;74.60;;;;;;4173395;28;20052;-54
2023/12/20 09:27:03;;;;;;;4.85;1.00;;;16.10;75.00;;;;;;4175492;28;20101;-55
2023/12/20 09:29:44;;;;;;;3.20;1.10;;;16.10;74.60;;;;;;4186619;28;20826;-52
2023/12/20 09:32:25;;;;;;;4.45;0.95;;;16.00;75.10;;;;;;4185612;28;20059;-57
2023/12/20 09:35:08;;;;;;;4.78;1.23;;;16.00;75.90;;;;;;4187748;28;20579;-51
2023/12/20 09:37:51;;;;;;;5.78;1.08;;;16.10;76.20;;;;;;4186462;28;20055;-54
2023/12/20 09:40:34;;;;;;;5.25;1.23;;;16.20;75.70;;;;;;4186737;28;20071;-50
2023/12/20 09:43:16;;;;;;;8.45;1.38;;;16.30;75.50;;;;;;4187790;28;20071;-55
2023/12/20 09:46:02;;;;;;;6.57;1.20;;;16.40;74.90;;;;;;4186812;28;20404;-54
2023/12/20 09:48:45;;;;;;;6.95;1.63;;;16.40;74.20;;;;;;4187735;28;20548;-57
2023/12/20 09:51:27;;;;;;;2.42;1.20;;;16.40;73.90;;;;;;4187408;28;20046;-57
2023/12/20 09:54:10;;;;;;;7.18;1.45;;;16.50;74.00;;;;;;4187043;28;20587;-55
2023/12/20 09:56:51;;;;;;;2.80;1.42;;;16.50;74.00;;;;;;4186016;28;20056;-57
2023/12/20 09:59:32;;;;;;;6.93;1.30;;;16.50;73.70;;;;;;4187835;28;20133;-56
2023/12/20 10:02:15;;;;;;;2.85;1.00;;;16.50;73.00;;;;;;4171151;28;20106;-54
2023/12/20 10:04:56;;;;;;;7.05;1.30;;;16.50;72.90;;;;;;4180395;28;20093;-57
2023/12/20 10:07:37;;;;;;;2.63;1.35;;;16.60;73.30;;;;;;4187283;28;20285;-55
2023/12/20 10:10:20;;;;;;;3.92;1.58;;;16.60;73.00;;;;;;4159943;28;20087;-54
2023/12/20 10:13:06;;;;;;;4.97;1.05;;;16.60;72.50;;;;;;4171756;28;20148;-56
2023/12/20 10:15:47;;;;;;;1.70;0.80;;;16.70;72.30;;;;;;4171007;28;20047;-54
2023/12/20 10:18:30;;;;;;;6.28;1.90;;;16.70;72.40;;;;;;4171128;28;20130;-57
2023/12/20 10:21:18;;;;;;;4.93;1.10;;;16.60;72.10;;;;;;4171966;28;20051;-56
2023/12/20 10:23:59;;;;;;;10.02;1.40;;;16.60;72.00;;;;;;4181140;28;20086;-55
2023/12/20 10:26:41;;;;;;;3.80;0.90;;;16.60;71.70;;;;;;4170916;28;20052;-56
2023/12/20 10:29:22;;;;;;;5.43;1.65;;;16.60;71.90;;;;;;4172425;28;20101;-54
2023/12/20 10:32:23;;;;;;;7.57;1.50;;;16.50;71.80;;;;;;4183788;28;20099;-56
2023/12/20 10:35:05;;;;;;;6.32;1.42;;;16.50;71.80;;;;;;4177592;28;20051;-54
2023/12/20 10:37:47;;;;;;;10.35;1.88;;;16.50;71.90;;;;;;4187463;28;20055;-55
2023/12/20 10:40:30;;;;;;;8.13;1.75;;;16.40;72.40;;;;;;4159952;28;20422;-54
2023/12/20 10:43:13;;;;;;;5.78;1.65;;;16.30;71.40;;;;;;4168781;28;20848;-52
2023/12/20 10:45:54;;;;;;;5.80;2.13;;;16.30;71.70;;;;;;4166105;28;20056;-57
2023/12/20 10:48:36;;;;;;;6.38;1.55;;;16.30;71.90;;;;;;4183575;28;20047;-56
2023/12/20 10:51:20;;;;;;;2.50;0.90;;;16.20;71.80;;;;;;4177254;28;20458;-53
2023/12/20 10:54:01;;;;;;;4.93;1.20;;;16.10;71.90;;;;;;4177585;28;20498;-54
2023/12/20 10:56:42;;;;;;;5.65;1.27;;;16.10;72.10;;;;;;4170964;28;20404;-56
2023/12/20 10:59:25;;;;;;;7.60;1.70;;;16.00;72.30;;;;;;4174912;28;20063;-55
2023/12/20 11:02:07;;;;;;;6.85;1.52;;;16.00;72.70;;;;;;4183307;28;20133;-56
2023/12/20 11:04:54;;;;;;;9.43;1.35;;;15.90;73.00;;;;;;4168279;28;20067;-57
2023/12/20 11:07:42;;;;;;;12.23;1.48;;;15.80;73.60;;;;;;4167754;28;20096;-56
2023/12/20 11:10:27;;;;;;;5.70;1.38;;;15.80;74.80;;;;;;4183925;28;20059;-52
2023/12/20 11:13:17;;;;;;;9.55;1.60;;;15.80;75.40;;;;;;4179007;28;20565;-52
2023/12/20 11:16:00;;;;;;;5.45;1.17;;;15.70;76.30;;;;;;4179950;28;20071;-55
2023/12/20 11:18:42;;;;;;;8.15;1.42;;;15.80;76.90;;;;;;4171780;28;20207;-55
2023/12/20 11:21:23;;;;;;;9.20;1.63;;;15.80;76.80;;;;;;4170120;28;20194;-52
2023/12/20 11:24:06;;;;;;;10.02;2.03;;;15.70;75.90;;;;;;4174031;28;20056;-54
2023/12/20 11:26:50;;;;;;;9.93;1.98;;;15.70;75.70;;;;;;4168608;28;20060;-56
2023/12/20 11:29:32;;;;;;;13.68;2.00;;;15.70;75.90;;;;;;4182767;28;20055;-57
2023/12/20 11:32:30;;;;;;;8.60;1.70;;;15.70;76.50;;;;;;4170082;28;20102;-53
2023/12/20 11:35:20;;;;;;;8.50;1.60;;;15.70;76.60;;;;;;4173050;28;20090;-55
2023/12/20 11:38:01;;;;;;;13.48;2.10;;;15.70;76.00;;;;;;4170736;28;20110;-57
2023/12/20 11:40:44;;;;;;;12.27;2.28;;;15.70;76.50;;;;;;4170450;28;20064;-51
2023/12/20 11:43:31;;;;;;;13.13;2.85;;;15.70;75.90;;;;;;4173064;28;20055;-57
2023/12/20 11:46:12;;;;;;;11.55;2.22;;;15.70;77.30;;;;;;4175229;28;20083;-53
2023/12/20 11:48:55;;;;;;;12.15;2.63;;;15.70;76.20;;;;;;4170945;28;20079;-55
2023/12/20 11:51:41;;;;;;;6.90;2.15;;;15.60;76.50;;;;;;4176799;28;20055;-57
2023/12/20 11:54:22;;;;;;;9.35;1.55;;;15.60;76.60;;;;;;4185902;28;20473;-55
2023/12/20 11:57:04;;;;;;;8.20;1.42;;;15.50;76.50;;;;;;4183093;28;20055;-57
2023/12/20 11:59:45;;;;;;;12.32;2.70;;;15.50;76.40;;;;;;4176190;28;20068;-57
2023/12/20 12:02:26;;;;;;;16.20;2.35;;;15.50;76.40;;;;;;4171258;28;20135;-54
2023/12/20 12:05:09;;;;;;;13.02;1.92;;;15.40;75.90;;;;;;4170461;28;20080;-53
2023/12/20 12:07:50;;;;;;;13.52;3.05;;;15.40;76.10;;;;;;4171615;28;20231;-57
2023/12/20 12:10:31;;;;;;;6.63;1.90;;;15.40;76.00;;;;;;4170202;28;20527;-57
2023/12/20 12:13:14;;;;;;;10.30;2.50;;;15.30;76.20;;;;;;4180554;28;20055;-52
2023/12/20 12:15:55;;;;;;;11.27;1.90;;;15.20;76.20;;;;;;4185337;28;20190;-56
2023/12/20 12:18:36;;;;;;;9.60;2.30;;;15.20;76.30;;;;;;4176735;28;20056;-57
2023/12/20 12:21:21;;;;;;;16.73;2.63;;;15.20;76.60;;;;;;4185226;28;20109;-53
2023/12/20 12:24:09;;;;;;;7.13;1.92;;;15.20;77.00;;;;;;4186268;28;20125;-55
2023/12/20 12:26:53;;;;;;;9.75;1.63;;;15.10;78.40;;;;;;4170905;28;20081;-53
2023/12/20 12:29:34;;;;;;;11.55;2.63;;;15.00;77.90;;;;;;4179511;28;20580;-59
2023/12/20 12:32:16;;;;;;;10.55;2.60;;;15.10;77.80;;;;;;4172359;28;20681;-56
2023/12/20 12:34:58;;;;;;;12.02;2.40;;;15.10;77.80;;;;;;4180916;28;20060;-55
2023/12/20 12:37:42;;;;;;;7.43;1.58;;;15.10;77.50;;;;;;4177235;28;20553;-57
2023/12/20 12:40:23;;;;;;;9.10;2.15;;;15.20;77.60;;;;;;4183328;28;20095;-54
2023/12/20 12:43:05;;;;;;;11.68;2.13;;;15.20;77.30;;;;;;4170352;28;20047;-56
2023/12/20 12:45:47;;;;;;;8.23;1.80;;;15.30;76.60;;;;;;4177600;28;20088;-53
2023/12/20 12:48:28;;;;;;;16.65;2.35;;;15.40;76.10;;;;;;4172742;28;20056;-56
2023/12/20 12:51:13;;;;;;;16.20;2.58;;;15.50;75.70;;;;;;4175957;28;20119;-57
2023/12/20 12:53:55;;;;;;;14.10;2.03;;;15.50;75.50;;;;;;4179729;28;20052;-52
2023/12/20 12:56:37;;;;;;;11.73;1.70;;;15.60;74.90;;;;;;4170349;28;20408;-52
2023/12/20 12:59:18;;;;;;;9.95;2.05;;;15.50;74.80;;;;;;4176370;28;20091;-52
2023/12/20 13:01:59;;;;;;;11.52;1.90;;;15.60;74.70;;;;;;4172487;28;20506;-56
2023/12/20 13:04:41;;;;;;;14.65;2.28;;;15.70;74.40;;;;;;4183013;28;20139;-58
2023/12/20 13:07:21;;;;;;;6.18;2.13;;;15.70;74.40;;;;;;4181240;28;20059;-58
2023/12/20 13:10:05;;;;;;;10.85;1.67;;;15.80;74.20;;;;;;4168756;28;20059;-60
2023/12/20 13:12:46;;;;;;;7.20;1.83;;;15.80;74.30;;;;;;4183480;28;20059;-57
2023/12/20 13:15:28;;;;;;;8.43;1.80;;;15.80;74.00;;;;;;4172283;28;20444;-53
2023/12/20 13:18:09;;;;;;;9.00;2.20;;;15.90;73.70;;;;;;4169250;28;20186;-53
2023/12/20 13:20:50;;;;;;;13.75;2.22;;;15.90;73.40;;;;;;4182071;28;20167;-57
2023/12/20 13:23:31;;;;;;;9.88;2.05;;;15.90;73.40;;;;;;4178881;28;20067;-54
2023/12/20 13:26:14;;;;;;;12.10;2.20;;;15.90;73.40;;;;;;4185140;28;20059;-57
2023/12/20 13:28:55;;;;;;;10.50;2.38;;;15.90;73.40;;;;;;4179125;28;20187;-56
2023/12/20 13:31:37;;;;;;;;;;;15.90;73.10;;;;;;4177753;28;20060;-55
2023/12/20 13:34:19;;;;;;;;;;;15.90;73.30;;;;;;4182390;28;19973;-56
2023/12/20 13:37:00;;;;;;;;;;;15.90;73.30;;;;;;4184018;28;20290;-55
2023/12/20 13:39:42;;;;;;;5.85;1.50;;;15.90;73.40;;;;;;4171614;28;20065;-57
2023/12/20 13:42:26;;;;;;;11.10;2.40;;;15.90;73.70;;;;;;4182452;28;20055;-57
2023/12/20 13:45:09;;;;;;;7.55;1.52;;;15.90;73.80;;;;;;4182719;28;20087;-54
2023/12/20 13:47:50;;;;;;;7.35;1.83;;;15.80;73.40;;;;;;4168813;28;20059;-54
2023/12/20 13:50:31;;;;;;;8.05;2.03;;;15.80;73.70;;;;;;4170559;28;20823;-53
2023/12/20 13:53:13;;;;;;;5.55;1.13;;;15.70;74.00;;;;;;4175420;28;20392;-56
2023/12/20 13:55:54;;;;;;;9.70;1.85;;;15.70;74.30;;;;;;4168235;28;20435;-55
2023/12/20 13:58:37;;;;;;;5.72;1.85;;;15.70;74.30;;;;;;4167729;28;20529;-55
2023/12/20 14:01:18;;;;;;;10.63;2.42;;;15.70;74.20;;;;;;4184507;28;20055;-53